Time,TemperatureF,DewpointF,PressureIn,WindDirection,WindDirectionDegrees,WindSpeedMPH,WindSpeedGustMPH,Humidity,HourlyPrecipIn,Conditions,Clouds,dailyrainin,SolarRadiationWatts/m^2,SoftwareType,DateUTC
2013-07-11 00:01:00,78.1,77.7,30.04,South,180,2.2,2.2,99,0.00,,,0.00,1104.0,meteobridge,2013-07-11 04:01:00,
2013-07-11 00:03:00,78.1,77.7,30.04,SE,135,1.6,2.2,99,0.00,,,0.00,1104.0,meteobridge,2013-07-11 04:03:00,
2013-07-11 00:05:00,78.1,77.7,30.04,SW,225,2.2,3.8,99,0.00,,,0.00,1140.0,meteobridge,2013-07-11 04:05:00,
2013-07-11 00:10:00,78.3,77.9,30.04,South,180,3.8,3.8,99,0.00,,,0.00,1140.0,meteobridge,2013-07-11 04:10:00,
2013-07-11 00:15:00,78.1,77.7,30.04,SW,225,3.8,3.8,99,0.00,,,0.00,1067.0,meteobridge,2013-07-11 04:15:00,
2013-07-11 00:20:00,78.1,77.7,30.04,East,90,3.8,3.8,99,0.00,,,0.00,1067.0,meteobridge,2013-07-11 04:20:00,
2013-07-11 00:25:00,78.1,77.7,30.04,SSE,158,3.8,4.5,99,0.00,,,0.00,994.0,meteobridge,2013-07-11 04:25:00,
2013-07-11 00:30:00,78.1,77.7,30.04,East,90,4.5,4.5,99,0.00,,,0.00,994.0,meteobridge,2013-07-11 04:30:00,
2013-07-11 00:36:00,77.9,77.5,30.04,South,180,2.2,3.8,99,0.00,,,0.00,957.0,meteobridge,2013-07-11 04:36:00,
2013-07-11 00:41:00,77.9,77.5,30.04,South,180,2.2,3.8,99,0.00,,,0.00,957.0,meteobridge,2013-07-11 04:41:00,
2013-07-11 00:46:00,77.9,77.5,30.04,West,270,0.7,1.6,99,0.00,,,0.00,957.0,meteobridge,2013-07-11 04:46:00,
2013-07-11 00:51:00,77.7,77.4,30.04,SSE,158,1.6,3.1,99,0.00,,,0.00,957.0,meteobridge,2013-07-11 04:51:00,
2013-07-11 00:56:00,77.7,77.4,30.03,South,180,2.2,2.2,99,0.00,,,0.00,957.0,meteobridge,2013-07-11 04:56:00,
2013-07-11 01:01:00,77.7,77.4,30.03,South,180,2.2,2.2,99,0.00,,,0.00,957.0,meteobridge,2013-07-11 05:01:00,
2013-07-11 01:07:00,77.7,77.4,30.03,ESE,113,1.6,2.2,99,0.00,,,0.00,994.0,meteobridge,2013-07-11 05:07:00,
2013-07-11 01:12:00,77.7,77.4,30.03,SSE,158,1.6,2.2,99,0.00,,,0.00,994.0,meteobridge,2013-07-11 05:12:00,
2013-07-11 01:17:00,77.7,77.4,30.03,SW,225,1.6,1.6,99,0.00,,,0.00,994.0,meteobridge,2013-07-11 05:17:00,
2013-07-11 01:22:00,77.7,77.4,30.03,SSE,158,1.6,2.2,99,0.00,,,0.00,994.0,meteobridge,2013-07-11 05:22:00,
2013-07-11 01:27:00,77.7,77.4,30.03,SE,135,4.5,4.5,99,0.00,,,0.00,1030.0,meteobridge,2013-07-11 05:27:00,
2013-07-11 01:32:00,77.7,77.4,30.03,SE,135,2.2,2.2,99,0.00,,,0.00,1030.0,meteobridge,2013-07-11 05:32:00,
2013-07-11 01:38:00,77.7,77.4,30.03,SE,135,1.6,2.2,99,0.00,,,0.00,1030.0,meteobridge,2013-07-11 05:38:00,
2013-07-11 01:43:00,77.7,77.4,30.03,NE,45,3.1,3.1,99,0.00,,,0.00,1030.0,meteobridge,2013-07-11 05:43:00,
2013-07-11 01:48:00,77.7,77.4,30.03,SE,135,2.2,2.2,99,0.00,,,0.00,1030.0,meteobridge,2013-07-11 05:48:00,
2013-07-11 01:53:00,77.7,77.4,30.02,South,180,3.1,5.4,99,0.00,,,0.00,1030.0,meteobridge,2013-07-11 05:53:00,
2013-07-11 01:58:00,77.5,77.2,30.03,South,180,3.1,3.8,99,0.00,,,0.00,1030.0,meteobridge,2013-07-11 05:58:00,
2013-07-11 02:03:00,77.5,77.2,30.02,South,180,1.6,1.6,99,0.00,,,0.00,1067.0,meteobridge,2013-07-11 06:03:00,
2013-07-11 02:09:00,77.5,77.2,30.02,South,180,1.6,3.8,99,0.00,,,0.00,1067.0,meteobridge,2013-07-11 06:09:00,
2013-07-11 02:14:00,77.5,77.2,30.02,West,270,1.6,1.6,99,0.00,,,0.00,1067.0,meteobridge,2013-07-11 06:14:00,
2013-07-11 02:19:00,77.4,77.0,30.02,SE,135,3.1,3.1,99,0.00,,,0.00,1067.0,meteobridge,2013-07-11 06:19:00,
2013-07-11 02:24:00,77.2,76.8,30.02,South,180,3.1,3.1,99,0.00,,,0.00,1030.0,meteobridge,2013-07-11 06:24:00,
2013-07-11 02:29:00,76.8,76.5,30.01,South,180,1.6,2.2,99,0.00,,,0.00,1030.0,meteobridge,2013-07-11 06:29:00,
2013-07-11 02:34:00,76.8,76.5,30.01,South,180,0.7,1.6,99,0.00,,,0.00,1030.0,meteobridge,2013-07-11 06:34:00,
2013-07-11 02:40:00,76.6,76.3,30.01,SE,135,1.6,2.2,99,0.00,,,0.00,1030.0,meteobridge,2013-07-11 06:40:00,
2013-07-11 02:45:00,76.5,76.1,30.01,SW,225,1.6,1.6,99,0.00,,,0.00,1030.0,meteobridge,2013-07-11 06:45:00,
2013-07-11 02:50:00,76.5,76.1,30.01,South,180,1.6,2.2,99,0.00,,,0.00,1030.0,meteobridge,2013-07-11 06:50:00,
2013-07-11 02:55:00,76.3,75.9,30.01,SW,225,2.2,2.2,99,0.00,,,0.00,994.0,meteobridge,2013-07-11 06:55:00,
2013-07-11 03:00:00,76.1,75.7,30.01,SW,225,1.6,1.6,99,0.00,,,0.00,994.0,meteobridge,2013-07-11 07:00:00,
2013-07-11 03:05:00,76.1,75.7,30.00,South,180,1.6,1.6,99,0.00,,,0.00,957.0,meteobridge,2013-07-11 07:05:00,
2013-07-11 03:11:00,76.1,75.7,30.01,South,180,0.0,0.7,99,0.00,,,0.00,957.0,meteobridge,2013-07-11 07:11:00,
2013-07-11 03:16:00,75.9,75.6,30.00,SW,225,0.7,0.7,99,0.00,,,0.00,957.0,meteobridge,2013-07-11 07:16:00,
2013-07-11 03:21:00,75.9,75.6,30.01,South,180,0.0,0.0,99,0.00,,,0.00,957.0,meteobridge,2013-07-11 07:21:00,
2013-07-11 03:26:00,75.9,75.6,30.01,SE,135,0.7,0.7,99,0.00,,,0.00,921.0,meteobridge,2013-07-11 07:26:00,
2013-07-11 03:31:00,75.9,75.6,30.00,East,90,1.6,2.2,99,0.00,,,0.00,921.0,meteobridge,2013-07-11 07:31:00,
2013-07-11 03:36:00,75.7,75.4,30.01,SE,135,0.7,2.2,99,0.00,,,0.00,884.0,meteobridge,2013-07-11 07:36:00,
2013-07-11 03:42:00,75.7,75.4,30.01,SW,225,2.2,2.2,99,0.00,,,0.00,884.0,meteobridge,2013-07-11 07:42:00,
2013-07-11 03:47:00,75.9,75.6,30.00,East,90,3.1,3.1,99,0.00,,,0.00,774.0,meteobridge,2013-07-11 07:47:00,
2013-07-11 03:52:00,75.9,75.6,30.01,South,180,1.6,1.6,99,0.00,,,0.00,774.0,meteobridge,2013-07-11 07:52:00,
2013-07-11 03:57:00,75.9,75.6,30.00,South,180,1.6,1.6,99,0.00,,,0.00,664.0,meteobridge,2013-07-11 07:57:00,
2013-07-11 04:02:00,75.9,75.6,30.00,East,90,1.6,2.2,99,0.00,,,0.00,664.0,meteobridge,2013-07-11 08:02:00,
2013-07-11 04:07:00,75.9,75.6,30.01,South,180,1.6,2.2,99,0.00,,,0.00,664.0,meteobridge,2013-07-11 08:07:00,
2013-07-11 04:13:00,75.9,75.6,30.01,South,180,1.6,1.6,99,0.00,,,0.00,664.0,meteobridge,2013-07-11 08:13:00,
2013-07-11 04:18:00,75.7,75.4,30.01,South,180,1.6,1.6,99,0.00,,,0.00,664.0,meteobridge,2013-07-11 08:18:00,
2013-07-11 04:23:00,75.7,75.4,30.01,South,180,0.0,1.6,99,0.00,,,0.00,664.0,meteobridge,2013-07-11 08:23:00,
2013-07-11 04:28:00,75.7,75.4,30.01,South,180,0.0,0.0,99,0.00,,,0.00,664.0,meteobridge,2013-07-11 08:28:00,
2013-07-11 04:33:00,75.7,75.4,30.01,South,180,0.7,1.6,99,0.00,,,0.00,664.0,meteobridge,2013-07-11 08:33:00,
2013-07-11 04:38:00,75.7,75.4,30.01,South,180,0.0,0.0,99,0.00,,,0.00,664.0,meteobridge,2013-07-11 08:38:00,
2013-07-11 04:44:00,75.7,75.4,30.01,South,180,0.7,1.6,99,0.00,,,0.00,664.0,meteobridge,2013-07-11 08:44:00,
2013-07-11 04:49:00,75.9,75.6,30.01,SE,135,3.1,3.1,99,0.00,,,0.00,664.0,meteobridge,2013-07-11 08:49:00,
2013-07-11 04:54:00,75.9,75.6,30.01,South,180,1.6,2.2,99,0.00,,,0.00,591.0,meteobridge,2013-07-11 08:54:00,
2013-07-11 04:59:00,75.9,75.6,30.01,SSE,158,2.2,3.1,99,0.00,,,0.00,591.0,meteobridge,2013-07-11 08:59:00,
2013-07-11 05:04:00,75.9,75.6,30.01,SW,225,2.2,3.1,99,0.00,,,0.00,518.0,meteobridge,2013-07-11 09:04:00,
2013-07-11 05:09:00,75.9,75.6,30.01,SE,135,2.2,2.2,99,0.00,,,0.00,518.0,meteobridge,2013-07-11 09:09:00,
2013-07-11 05:15:00,75.9,75.6,30.00,South,180,3.1,3.1,99,0.00,,,0.00,481.0,meteobridge,2013-07-11 09:15:00,
2013-07-11 05:20:00,75.9,75.6,30.00,East,90,2.2,2.2,99,0.00,,,0.00,481.0,meteobridge,2013-07-11 09:20:00,
2013-07-11 05:25:00,75.7,75.4,30.00,East,90,3.1,4.5,99,0.00,,,0.00,481.0,meteobridge,2013-07-11 09:25:00,
2013-07-11 05:30:00,75.7,75.4,30.00,East,90,3.1,3.1,99,0.00,,,0.00,481.0,meteobridge,2013-07-11 09:30:00,
2013-07-11 05:35:00,75.7,75.4,30.00,East,90,3.1,3.1,99,0.00,,,0.00,481.0,meteobridge,2013-07-11 09:35:00,
2013-07-11 05:40:00,75.7,75.4,30.00,South,180,2.2,2.2,99,0.00,,,0.00,481.0,meteobridge,2013-07-11 09:40:00,
2013-07-11 05:46:00,75.6,75.2,30.01,East,90,2.2,2.2,99,0.00,,,0.00,481.0,meteobridge,2013-07-11 09:46:00,
2013-07-11 05:51:00,75.6,75.2,30.00,South,180,1.6,2.2,99,0.00,,,0.00,481.0,meteobridge,2013-07-11 09:51:00,
2013-07-11 05:56:00,75.6,75.2,30.01,SE,135,3.1,3.8,99,0.00,,,0.00,481.0,meteobridge,2013-07-11 09:56:00,
2013-07-11 06:01:00,75.4,75.0,30.01,East,90,2.2,2.2,99,0.00,,,0.00,481.0,meteobridge,2013-07-11 10:01:00,
2013-07-11 06:06:00,75.4,75.0,30.01,East,90,1.6,1.6,99,0.00,,,0.00,481.0,meteobridge,2013-07-11 10:06:00,
2013-07-11 06:12:00,75.4,75.0,30.01,SE,135,3.1,3.1,99,0.00,,,0.00,481.0,meteobridge,2013-07-11 10:12:00,
2013-07-11 06:17:00,75.4,75.0,30.01,South,180,1.6,3.8,99,0.00,,,0.00,481.0,meteobridge,2013-07-11 10:17:00,
2013-07-11 06:22:00,75.4,75.0,30.01,SSW,203,0.7,2.2,99,0.00,,,0.00,481.0,meteobridge,2013-07-11 10:22:00,
2013-07-11 06:27:00,75.4,75.0,30.01,East,90,2.2,2.2,99,0.00,,,0.00,481.0,meteobridge,2013-07-11 10:27:00,
2013-07-11 06:32:00,75.4,75.0,30.01,East,90,3.1,3.8,99,0.00,,,0.00,481.0,meteobridge,2013-07-11 10:32:00,
2013-07-11 06:37:00,75.2,74.8,30.02,NE,45,1.6,2.2,99,0.00,,,0.00,481.0,meteobridge,2013-07-11 10:37:00,
2013-07-11 06:43:00,75.2,74.8,30.01,ESE,113,2.2,2.2,99,0.00,,,0.00,481.0,meteobridge,2013-07-11 10:43:00,
2013-07-11 06:48:00,75.2,74.8,30.02,East,90,3.8,3.8,99,0.00,,,0.00,481.0,meteobridge,2013-07-11 10:48:00,
2013-07-11 06:53:00,75.4,75.0,30.02,South,180,3.1,3.1,99,0.00,,,0.00,481.0,meteobridge,2013-07-11 10:53:00,
2013-07-11 06:58:00,75.4,75.0,30.02,NE,45,3.1,3.1,99,0.00,,,0.00,481.0,meteobridge,2013-07-11 10:58:00,
2013-07-11 07:03:00,75.4,75.0,30.02,East,90,3.1,3.1,99,0.00,,,0.00,481.0,meteobridge,2013-07-11 11:03:00,
2013-07-11 07:08:00,75.6,75.2,30.02,South,180,1.6,2.2,99,0.00,,,0.00,481.0,meteobridge,2013-07-11 11:08:00,
2013-07-11 07:14:00,75.7,75.4,30.02,East,90,2.2,3.8,99,0.00,,,0.00,481.0,meteobridge,2013-07-11 11:14:00,
2013-07-11 07:19:00,75.9,75.6,30.02,East,90,2.2,3.8,99,0.00,,,0.00,481.0,meteobridge,2013-07-11 11:19:00,
2013-07-11 07:24:00,76.1,75.7,30.02,East,90,2.2,2.2,99,0.00,,,0.00,481.0,meteobridge,2013-07-11 11:24:00,
2013-07-11 07:30:00,76.5,76.1,30.02,South,180,1.6,1.6,99,0.00,,,0.00,481.0,meteobridge,2013-07-11 11:30:00,
2013-07-11 07:35:00,77.0,76.6,30.02,SE,135,2.2,2.2,99,0.00,,,0.00,445.0,meteobridge,2013-07-11 11:35:00,
2013-07-11 07:40:00,77.2,76.8,30.02,East,90,3.8,3.8,99,0.00,,,0.00,445.0,meteobridge,2013-07-11 11:40:00,
2013-07-11 07:45:00,77.7,77.4,30.02,SE,135,2.2,3.8,99,0.00,,,0.00,445.0,meteobridge,2013-07-11 11:45:00,
2013-07-11 07:50:00,77.9,77.5,30.02,SSE,158,3.8,6.0,99,0.00,,,0.00,445.0,meteobridge,2013-07-11 11:50:00,
2013-07-11 07:55:00,77.9,77.5,30.02,East,90,3.1,5.4,99,0.00,,,0.00,445.0,meteobridge,2013-07-11 11:55:00,
2013-07-11 08:01:00,78.1,77.7,30.02,NE,45,1.6,5.4,99,0.00,,,0.00,445.0,meteobridge,2013-07-11 12:01:00,
2013-07-11 08:06:00,78.6,78.3,30.01,SE,135,4.5,5.4,99,0.00,,,0.00,445.0,meteobridge,2013-07-11 12:06:00,
2013-07-11 08:11:00,78.8,78.4,30.01,South,180,5.4,5.4,99,0.00,,,0.00,445.0,meteobridge,2013-07-11 12:11:00,
2013-07-11 08:16:00,79.2,78.8,30.01,South,180,2.2,2.2,99,0.00,,,0.00,408.0,meteobridge,2013-07-11 12:16:00,
2013-07-11 08:21:00,79.5,79.2,30.01,South,180,3.1,3.8,99,0.00,,,0.00,408.0,meteobridge,2013-07-11 12:21:00,
2013-07-11 08:26:00,79.9,79.5,30.02,SSE,158,3.8,4.5,99,0.00,,,0.00,408.0,meteobridge,2013-07-11 12:26:00,
2013-07-11 08:32:00,80.1,79.7,30.01,South,180,3.1,3.1,99,0.00,,,0.00,408.0,meteobridge,2013-07-11 12:32:00,
2013-07-11 08:37:00,80.2,79.0,30.01,East,90,4.5,5.4,96,0.00,,,0.00,408.0,meteobridge,2013-07-11 12:37:00,
2013-07-11 08:42:00,80.6,79.3,30.01,NE,45,4.5,4.5,96,0.00,,,0.00,408.0,meteobridge,2013-07-11 12:42:00,
2013-07-11 08:47:00,81.0,79.0,30.01,SE,135,3.1,3.8,94,0.00,,,0.00,408.0,meteobridge,2013-07-11 12:47:00,
2013-07-11 08:52:00,80.8,78.6,30.02,South,180,2.2,3.1,93,0.00,,,0.00,408.0,meteobridge,2013-07-11 12:52:00,
2013-07-11 08:57:00,80.6,79.0,30.02,South,180,3.8,5.4,95,0.00,,,0.00,408.0,meteobridge,2013-07-11 12:57:00,
2013-07-11 09:03:00,81.1,79.2,30.01,South,180,2.2,5.4,94,0.00,,,0.00,408.0,meteobridge,2013-07-11 13:03:00,
2013-07-11 09:08:00,81.7,78.8,30.02,SE,135,4.5,4.5,91,0.00,,,0.00,371.0,meteobridge,2013-07-11 13:08:00,
2013-07-11 09:13:00,82.2,79.3,30.02,South,180,3.8,4.5,91,0.00,,,0.00,371.0,meteobridge,2013-07-11 13:13:00,
2013-07-11 09:18:00,82.6,79.0,30.02,SE,135,3.1,3.1,89,0.00,,,0.00,371.0,meteobridge,2013-07-11 13:18:00,
2013-07-11 09:23:00,82.9,79.0,30.02,SE,135,3.1,3.8,88,0.00,,,0.00,371.0,meteobridge,2013-07-11 13:23:00,
2013-07-11 09:28:00,83.1,78.8,30.02,South,180,3.8,5.4,87,0.00,,,0.00,371.0,meteobridge,2013-07-11 13:28:00,
2013-07-11 09:33:00,83.7,79.0,30.02,ESE,113,1.6,6.0,86,0.00,,,0.00,371.0,meteobridge,2013-07-11 13:33:00,
2013-07-11 09:39:00,84.2,79.2,30.02,South,180,3.8,3.8,85,0.00,,,0.00,335.0,meteobridge,2013-07-11 13:39:00,
2013-07-11 09:44:00,84.4,79.0,30.02,SSE,158,3.1,5.4,84,0.00,,,0.00,335.0,meteobridge,2013-07-11 13:44:00,
2013-07-11 09:49:00,84.6,78.4,30.02,SSE,158,6.0,6.0,82,0.00,,,0.00,335.0,meteobridge,2013-07-11 13:49:00,
2013-07-11 09:54:00,84.6,78.8,30.02,SSE,158,3.1,8.3,83,0.00,,,0.00,335.0,meteobridge,2013-07-11 13:54:00,
2013-07-11 09:59:00,85.1,79.0,30.02,East,90,3.8,6.0,82,0.00,,,0.00,335.0,meteobridge,2013-07-11 13:59:00,
2013-07-11 10:04:00,85.3,79.2,30.02,East,90,3.1,8.3,82,0.00,,,0.00,298.0,meteobridge,2013-07-11 14:04:00,
2013-07-11 10:10:00,84.9,78.4,30.02,South,180,3.1,5.4,81,0.00,,,0.00,298.0,meteobridge,2013-07-11 14:10:00,
2013-07-11 10:15:00,85.1,78.6,30.02,NNE,23,6.9,6.9,81,0.00,,,0.00,298.0,meteobridge,2013-07-11 14:15:00,
2013-07-11 10:20:00,84.9,78.4,30.02,SW,225,7.6,7.6,81,0.00,,,0.00,298.0,meteobridge,2013-07-11 14:20:00,
2013-07-11 10:25:00,85.5,78.3,30.02,South,180,5.4,7.6,79,0.00,,,0.00,298.0,meteobridge,2013-07-11 14:25:00,
2013-07-11 10:30:00,85.3,78.1,30.02,South,180,2.2,3.8,79,0.00,,,0.00,298.0,meteobridge,2013-07-11 14:30:00,
2013-07-11 10:35:00,85.5,77.7,30.01,South,180,6.9,6.9,78,0.00,,,0.00,298.0,meteobridge,2013-07-11 14:35:00,
2013-07-11 10:41:00,85.5,77.0,30.01,South,180,5.4,6.0,76,0.00,,,0.00,298.0,meteobridge,2013-07-11 14:41:00,
2013-07-11 10:46:00,86.0,77.5,30.01,WNW,293,4.5,4.5,76,0.00,,,0.00,262.0,meteobridge,2013-07-11 14:46:00,
2013-07-11 10:51:00,87.1,77.7,30.01,South,180,5.4,5.4,74,0.00,,,0.00,262.0,meteobridge,2013-07-11 14:51:00,
2013-07-11 10:56:00,87.6,77.9,30.02,NE,45,3.1,3.8,73,0.00,,,0.00,262.0,meteobridge,2013-07-11 14:56:00,
2013-07-11 11:01:00,88.5,76.6,30.02,South,180,5.4,5.4,68,0.00,,,0.00,262.0,meteobridge,2013-07-11 15:01:00,
2013-07-11 11:06:00,88.0,77.0,30.02,NW,315,4.5,5.4,70,0.00,,,0.00,262.0,meteobridge,2013-07-11 15:06:00,
2013-07-11 11:12:00,87.6,75.7,30.02,SSW,203,3.1,4.5,68,0.00,,,0.00,262.0,meteobridge,2013-07-11 15:12:00,
2013-07-11 11:17:00,87.3,76.3,30.02,SW,225,4.5,4.5,70,0.00,,,0.00,225.0,meteobridge,2013-07-11 15:17:00,
2013-07-11 11:22:00,86.9,76.3,30.03,North,0,4.5,6.9,71,0.00,,,0.00,225.0,meteobridge,2013-07-11 15:22:00,
2013-07-11 11:29:00,86.9,76.3,30.03,South,180,5.4,5.4,71,0.00,,,0.00,847.0,meteobridge,2013-07-11 15:29:00,
2013-07-11 11:35:00,86.5,76.5,30.02,WSW,248,3.8,7.6,72,0.00,,,0.00,847.0,meteobridge,2013-07-11 15:35:00,
2013-07-11 11:40:00,86.4,76.3,30.03,NW,315,3.8,3.8,72,0.00,,,0.00,847.0,meteobridge,2013-07-11 15:40:00,
2013-07-11 11:45:00,86.2,76.5,30.02,NW,315,6.0,6.0,73,0.00,,,0.00,847.0,meteobridge,2013-07-11 15:45:00,
2013-07-11 11:50:00,85.8,76.1,30.02,NW,315,2.2,4.5,73,0.00,,,0.00,811.0,meteobridge,2013-07-11 15:50:00,
2013-07-11 11:55:00,86.2,76.1,30.02,West,270,3.1,5.4,72,0.00,,,0.00,811.0,meteobridge,2013-07-11 15:55:00,
2013-07-11 12:00:00,86.4,76.6,30.02,West,270,3.1,4.5,73,0.00,,,0.00,811.0,meteobridge,2013-07-11 16:00:00,
2013-07-11 12:06:00,86.5,75.6,30.03,SW,225,10.7,10.7,70,0.00,,,0.00,811.0,meteobridge,2013-07-11 16:06:00,
2013-07-11 12:11:00,86.4,75.4,30.03,WSW,248,4.5,4.5,70,0.00,,,0.00,811.0,meteobridge,2013-07-11 16:11:00,
2013-07-11 12:16:00,86.4,76.3,30.02,NW,315,3.1,3.8,72,0.00,,,0.00,774.0,meteobridge,2013-07-11 16:16:00,
2013-07-11 12:21:00,87.4,75.2,30.02,West,270,5.4,5.4,67,0.00,,,0.00,774.0,meteobridge,2013-07-11 16:21:00,
2013-07-11 12:27:00,87.4,75.6,30.02,West,270,3.1,4.5,68,0.00,,,0.00,774.0,meteobridge,2013-07-11 16:27:00,
2013-07-11 12:32:00,87.1,75.7,30.02,North,0,3.8,3.8,69,0.00,,,0.00,774.0,meteobridge,2013-07-11 16:32:00,
2013-07-11 12:37:00,88.0,75.6,30.01,West,270,6.0,6.0,67,0.00,,,0.00,738.0,meteobridge,2013-07-11 16:37:00,
2013-07-11 12:42:00,89.1,75.7,30.01,West,270,6.9,6.9,65,0.00,,,0.00,738.0,meteobridge,2013-07-11 16:42:00,
2013-07-11 12:47:00,90.1,74.8,30.01,South,180,6.0,6.0,61,0.00,,,0.00,738.0,meteobridge,2013-07-11 16:47:00,
2013-07-11 12:53:00,90.9,75.0,30.01,SW,225,3.1,6.0,60,0.00,,,0.00,738.0,meteobridge,2013-07-11 16:53:00,
2013-07-11 12:58:00,91.6,75.2,30.01,WNW,293,3.1,6.0,59,0.00,,,0.00,701.0,meteobridge,2013-07-11 16:58:00,
2013-07-11 13:03:00,92.5,75.0,30.00,South,180,3.8,5.4,57,0.00,,,0.00,701.0,meteobridge,2013-07-11 17:03:00,
2013-07-11 13:08:00,91.8,74.3,30.01,South,180,3.1,6.9,57,0.00,,,0.00,701.0,meteobridge,2013-07-11 17:08:00,
2013-07-11 13:13:00,90.5,73.8,30.01,SW,225,6.0,6.9,58,0.00,,,0.00,701.0,meteobridge,2013-07-11 17:13:00,
2013-07-11 13:18:00,90.3,73.0,30.01,West,270,2.2,2.2,57,0.00,,,0.00,664.0,meteobridge,2013-07-11 17:18:00,
2013-07-11 13:23:00,90.1,74.8,30.01,SW,225,5.4,5.4,61,0.00,,,0.00,664.0,meteobridge,2013-07-11 17:23:00,
2013-07-11 13:29:00,90.5,73.2,30.01,SW,225,6.0,9.8,57,0.00,,,0.00,628.0,meteobridge,2013-07-11 17:29:00,
2013-07-11 13:34:00,90.1,74.3,30.01,South,180,4.5,7.6,60,0.00,,,0.00,628.0,meteobridge,2013-07-11 17:34:00,
2013-07-11 13:39:00,90.1,73.4,30.00,West,270,3.8,5.4,58,0.00,,,0.00,518.0,meteobridge,2013-07-11 17:39:00,
2013-07-11 13:44:00,91.0,73.2,30.00,South,180,6.0,9.2,56,0.00,,,0.00,518.0,meteobridge,2013-07-11 17:44:00,
2013-07-11 13:49:00,90.7,73.4,30.00,NW,315,6.9,6.9,57,0.00,,,0.00,371.0,meteobridge,2013-07-11 17:49:00,
2013-07-11 13:54:00,89.6,73.4,30.00,East,90,2.2,7.6,59,0.00,,,0.00,371.0,meteobridge,2013-07-11 17:54:00,
2013-07-11 13:59:00,88.9,73.2,30.00,SW,225,3.8,3.8,60,0.00,,,0.00,262.0,meteobridge,2013-07-11 17:59:00,
2013-07-11 14:05:00,88.9,73.2,30.00,South,180,4.5,4.5,60,0.00,,,0.00,262.0,meteobridge,2013-07-11 18:05:00,
2013-07-11 14:10:00,89.8,73.0,29.99,North,0,7.6,13.0,58,0.00,,,0.00,188.0,meteobridge,2013-07-11 18:10:00,
2013-07-11 14:15:00,89.6,72.9,29.99,SW,225,3.8,4.5,58,0.00,,,0.00,188.0,meteobridge,2013-07-11 18:15:00,
2013-07-11 14:20:00,89.1,72.9,29.99,SW,225,7.6,7.6,59,0.00,,,0.00,188.0,meteobridge,2013-07-11 18:20:00,
2013-07-11 14:25:00,88.9,73.2,29.99,SE,135,4.5,8.3,60,0.00,,,0.00,188.0,meteobridge,2013-07-11 18:25:00,
2013-07-11 14:30:00,88.7,73.6,30.00,NNW,338,3.8,6.0,61,0.00,,,0.00,188.0,meteobridge,2013-07-11 18:30:00,
2013-07-11 14:35:00,88.3,73.6,30.00,SSW,203,4.5,8.3,62,0.00,,,0.00,225.0,meteobridge,2013-07-11 18:35:00,
2013-07-11 14:40:00,88.2,73.0,29.99,West,270,6.9,9.2,61,0.00,,,0.00,225.0,meteobridge,2013-07-11 18:40:00,
2013-07-11 14:45:00,87.8,73.2,29.99,SW,225,5.4,7.6,62,0.00,,,0.00,225.0,meteobridge,2013-07-11 18:45:00,
2013-07-11 14:51:00,87.8,74.1,29.99,WNW,293,5.4,5.4,64,0.00,,,0.00,225.0,meteobridge,2013-07-11 18:51:00,
2013-07-11 14:56:00,88.0,73.8,29.98,NW,315,4.5,6.0,63,0.00,,,0.00,225.0,meteobridge,2013-07-11 18:56:00,
2013-07-11 15:01:00,88.9,74.7,29.99,WNW,293,6.0,10.7,63,0.00,,,0.00,225.0,meteobridge,2013-07-11 19:01:00,
2013-07-11 15:06:00,89.6,73.9,29.99,West,270,8.3,10.7,60,0.00,,,0.00,225.0,meteobridge,2013-07-11 19:06:00,
2013-07-11 15:11:00,89.4,75.6,29.98,West,270,6.0,6.0,64,0.00,,,0.00,225.0,meteobridge,2013-07-11 19:11:00,
2013-07-11 15:17:00,88.9,75.6,29.98,West,270,5.4,7.6,65,0.00,,,0.00,225.0,meteobridge,2013-07-11 19:17:00,
2013-07-11 15:22:00,88.2,75.4,29.98,South,180,7.6,7.6,66,0.00,,,0.00,225.0,meteobridge,2013-07-11 19:22:00,
2013-07-11 15:27:00,87.6,75.7,29.98,NW,315,3.1,6.0,68,0.00,,,0.00,225.0,meteobridge,2013-07-11 19:27:00,
2013-07-11 15:32:00,87.1,76.1,29.98,West,270,7.6,9.8,70,0.00,,,0.00,225.0,meteobridge,2013-07-11 19:32:00,
2013-07-11 15:37:00,86.5,76.5,29.98,NW,315,3.8,5.4,72,0.00,,,0.00,225.0,meteobridge,2013-07-11 19:37:00,
2013-07-11 15:42:00,86.4,76.3,29.98,SW,225,3.8,5.4,72,0.00,,,0.00,225.0,meteobridge,2013-07-11 19:42:00,
2013-07-11 15:47:00,86.4,76.3,29.97,SW,225,4.5,4.5,72,0.00,,,0.00,225.0,meteobridge,2013-07-11 19:47:00,
2013-07-11 15:52:00,86.2,75.2,29.97,SW,225,5.4,6.9,70,0.00,,,0.00,225.0,meteobridge,2013-07-11 19:52:00,
2013-07-11 15:58:00,86.2,74.8,29.97,North,0,3.8,6.9,69,0.00,,,0.00,262.0,meteobridge,2013-07-11 19:58:00,
2013-07-11 16:03:00,86.2,74.8,29.98,West,270,6.0,6.0,69,0.00,,,0.00,262.0,meteobridge,2013-07-11 20:03:00,
2013-07-11 16:08:00,86.0,75.6,29.96,SSW,203,2.2,6.0,71,0.00,,,0.00,262.0,meteobridge,2013-07-11 20:08:00,
2013-07-11 16:13:00,86.0,75.6,29.96,West,270,3.8,4.5,71,0.00,,,0.00,262.0,meteobridge,2013-07-11 20:13:00,
2013-07-11 16:18:00,86.0,75.6,29.96,SW,225,3.1,5.4,71,0.00,,,0.00,225.0,meteobridge,2013-07-11 20:18:00,
2013-07-11 16:23:00,86.0,75.6,29.96,SW,225,5.4,6.0,71,0.00,,,0.00,225.0,meteobridge,2013-07-11 20:23:00,
2013-07-11 16:29:00,86.0,76.3,29.96,SW,225,6.9,6.9,73,0.00,,,0.00,262.0,meteobridge,2013-07-11 20:29:00,
2013-07-11 16:34:00,85.8,75.7,29.96,WSW,248,4.5,4.5,72,0.00,,,0.00,262.0,meteobridge,2013-07-11 20:34:00,
2013-07-11 16:39:00,86.0,75.9,29.96,SW,225,5.4,5.4,72,0.00,,,0.00,262.0,meteobridge,2013-07-11 20:39:00,
2013-07-11 16:44:00,86.2,75.7,29.96,North,0,3.8,5.4,71,0.00,,,0.00,262.0,meteobridge,2013-07-11 20:44:00,
2013-07-11 16:49:00,86.4,76.3,29.96,West,270,3.8,4.5,72,0.00,,,0.00,262.0,meteobridge,2013-07-11 20:49:00,
2013-07-11 16:54:00,86.5,75.9,29.96,SW,225,6.0,6.0,71,0.00,,,0.00,262.0,meteobridge,2013-07-11 20:54:00,
2013-07-11 16:59:00,86.5,76.5,29.96,WSW,248,3.1,5.4,72,0.00,,,0.00,262.0,meteobridge,2013-07-11 20:59:00,
2013-07-11 17:04:00,86.7,76.6,29.96,South,180,5.4,6.0,72,0.00,,,0.00,262.0,meteobridge,2013-07-11 21:04:00,
2013-07-11 17:09:00,86.9,76.8,29.95,SW,225,4.5,4.5,72,0.00,,,0.00,262.0,meteobridge,2013-07-11 21:09:00,
2013-07-11 17:15:00,87.4,75.6,29.95,SW,225,3.8,4.5,68,0.00,,,0.00,262.0,meteobridge,2013-07-11 21:15:00,
2013-07-11 17:20:00,87.4,75.2,29.95,West,270,3.1,5.4,67,0.00,,,0.00,262.0,meteobridge,2013-07-11 21:20:00,
2013-07-11 17:25:00,87.4,74.7,29.96,NW,315,6.0,6.0,66,0.00,,,0.00,262.0,meteobridge,2013-07-11 21:25:00,
2013-07-11 17:30:00,87.4,74.3,29.95,SW,225,6.0,6.0,65,0.00,,,0.00,262.0,meteobridge,2013-07-11 21:30:00,
2013-07-11 17:35:00,87.4,73.8,29.96,West,270,5.4,6.0,64,0.00,,,0.00,262.0,meteobridge,2013-07-11 21:35:00,
2013-07-11 17:40:00,87.4,74.3,29.95,West,270,4.5,4.5,65,0.00,,,0.00,262.0,meteobridge,2013-07-11 21:40:00,
2013-07-11 17:45:00,87.6,74.3,29.95,SW,225,4.5,6.9,65,0.00,,,0.00,225.0,meteobridge,2013-07-11 21:45:00,
2013-07-11 17:51:00,87.6,74.8,29.95,SE,135,3.1,6.0,66,0.00,,,0.00,225.0,meteobridge,2013-07-11 21:51:00,
2013-07-11 17:56:00,88.3,75.0,29.95,SW,225,6.0,6.0,65,0.00,,,0.00,225.0,meteobridge,2013-07-11 21:56:00,
2013-07-11 18:01:00,88.9,74.7,29.96,West,270,7.6,7.6,63,0.00,,,0.00,225.0,meteobridge,2013-07-11 22:01:00,
2013-07-11 18:06:00,89.2,75.0,29.96,WSW,248,3.8,3.8,63,0.00,,,0.00,225.0,meteobridge,2013-07-11 22:06:00,
2013-07-11 18:11:00,88.9,74.1,29.96,SW,225,4.5,4.5,62,0.00,,,0.00,225.0,meteobridge,2013-07-11 22:11:00,
2013-07-11 18:16:00,88.5,73.8,29.96,South,180,6.0,6.9,62,0.00,,,0.00,225.0,meteobridge,2013-07-11 22:16:00,
2013-07-11 18:21:00,88.7,73.9,29.95,SW,225,3.8,6.9,62,0.00,,,0.00,225.0,meteobridge,2013-07-11 22:21:00,
2013-07-11 18:26:00,88.5,74.3,29.96,SSW,203,5.4,5.4,63,0.00,,,0.00,225.0,meteobridge,2013-07-11 22:26:00,
2013-07-11 18:31:00,88.5,74.3,29.96,SE,135,2.2,3.8,63,0.00,,,0.00,225.0,meteobridge,2013-07-11 22:31:00,
2013-07-11 18:37:00,88.2,73.9,29.96,NW,315,4.5,6.0,63,0.00,,,0.00,225.0,meteobridge,2013-07-11 22:37:00,
2013-07-11 18:42:00,88.2,74.5,29.96,South,180,1.6,5.4,64,0.00,,,0.00,225.0,meteobridge,2013-07-11 22:42:00,
2013-07-11 18:47:00,87.6,73.9,29.96,South,180,2.2,4.5,64,0.00,,,0.00,225.0,meteobridge,2013-07-11 22:47:00,
2013-07-11 18:52:00,86.9,73.2,29.96,South,180,1.6,3.8,64,0.00,,,0.00,225.0,meteobridge,2013-07-11 22:52:00,
2013-07-11 18:57:00,86.7,73.0,29.96,West,270,4.5,4.5,64,0.00,,,0.00,225.0,meteobridge,2013-07-11 22:57:00,
2013-07-11 19:02:00,86.5,72.9,29.96,NW,315,2.2,3.1,64,0.00,,,0.00,225.0,meteobridge,2013-07-11 23:02:00,
2013-07-11 19:07:00,86.5,72.5,29.96,West,270,2.2,3.8,63,0.00,,,0.00,225.0,meteobridge,2013-07-11 23:07:00,
2013-07-11 19:13:00,86.4,73.2,29.96,SW,225,2.2,3.8,65,0.00,,,0.00,225.0,meteobridge,2013-07-11 23:13:00,
2013-07-11 19:18:00,86.4,72.7,29.96,NW,315,2.2,3.1,64,0.00,,,0.00,225.0,meteobridge,2013-07-11 23:18:00,
2013-07-11 19:23:00,86.2,72.5,29.96,South,180,1.6,1.6,64,0.00,,,0.00,225.0,meteobridge,2013-07-11 23:23:00,
2013-07-11 19:28:00,86.2,72.5,29.96,South,180,3.1,3.1,64,0.00,,,0.00,225.0,meteobridge,2013-07-11 23:28:00,
2013-07-11 19:33:00,85.8,72.7,29.96,SSW,203,1.6,2.2,65,0.00,,,0.00,225.0,meteobridge,2013-07-11 23:33:00,
2013-07-11 19:38:00,85.3,72.7,29.96,West,270,3.1,5.4,66,0.00,,,0.00,225.0,meteobridge,2013-07-11 23:38:00,
2013-07-11 19:44:00,85.1,72.9,29.96,West,270,1.6,1.6,67,0.00,,,0.00,225.0,meteobridge,2013-07-11 23:44:00,
2013-07-11 19:49:00,84.7,73.0,29.96,South,180,1.6,3.1,68,0.00,,,0.00,225.0,meteobridge,2013-07-11 23:49:00,
2013-07-11 19:54:00,84.4,72.7,29.96,NW,315,2.2,2.2,68,0.00,,,0.00,225.0,meteobridge,2013-07-11 23:54:00,
2013-07-11 19:59:00,84.2,72.9,29.96,SSW,203,1.6,2.2,69,0.00,,,0.00,225.0,meteobridge,2013-07-11 23:59:00,
2013-07-11 20:04:00,84.0,73.2,29.96,SW,225,1.6,2.2,70,0.00,,,0.00,225.0,meteobridge,2013-07-12 00:04:00,
2013-07-11 20:10:00,83.7,72.9,29.96,SW,225,2.2,2.2,70,0.00,,,0.00,225.0,meteobridge,2013-07-12 00:10:00,
2013-07-11 20:15:00,83.5,73.0,29.96,West,270,2.2,3.1,71,0.00,,,0.00,225.0,meteobridge,2013-07-12 00:15:00,
2013-07-11 20:20:00,83.3,73.4,29.96,SW,225,0.7,1.6,72,0.00,,,0.00,225.0,meteobridge,2013-07-12 00:20:00,
2013-07-11 20:25:00,83.1,73.6,29.96,WNW,293,1.6,1.6,73,0.00,,,0.00,225.0,meteobridge,2013-07-12 00:25:00,
2013-07-11 20:30:00,82.9,73.4,29.96,West,270,0.0,1.6,73,0.00,,,0.00,225.0,meteobridge,2013-07-12 00:30:00,
2013-07-11 20:35:00,82.8,73.6,29.96,West,270,2.2,2.2,74,0.00,,,0.00,225.0,meteobridge,2013-07-12 00:35:00,
2013-07-11 20:40:00,82.4,73.8,29.96,NW,315,2.2,3.1,75,0.00,,,0.00,225.0,meteobridge,2013-07-12 00:40:00,
2013-07-11 20:45:00,82.2,73.6,29.96,West,270,3.1,3.1,75,0.00,,,0.00,225.0,meteobridge,2013-07-12 00:45:00,
2013-07-11 20:51:00,82.0,74.1,29.96,South,180,0.7,1.6,77,0.00,,,0.00,225.0,meteobridge,2013-07-12 00:51:00,
2013-07-11 20:56:00,81.7,73.8,29.97,SW,225,1.6,1.6,77,0.00,,,0.00,225.0,meteobridge,2013-07-12 00:56:00,
2013-07-11 21:01:00,81.5,73.9,29.97,South,180,0.7,0.7,78,0.00,,,0.00,225.0,meteobridge,2013-07-12 01:01:00,
2013-07-11 21:06:00,81.3,74.1,29.97,SW,225,1.6,1.6,79,0.00,,,0.00,225.0,meteobridge,2013-07-12 01:06:00,
2013-07-11 21:11:00,81.1,74.3,29.98,South,180,1.6,1.6,80,0.00,,,0.00,225.0,meteobridge,2013-07-12 01:11:00,
2013-07-11 21:16:00,81.0,74.7,29.98,South,180,1.6,1.6,81,0.00,,,0.00,225.0,meteobridge,2013-07-12 01:16:00,
2013-07-11 21:21:00,80.8,74.5,29.98,South,180,0.0,0.7,81,0.00,,,0.00,225.0,meteobridge,2013-07-12 01:21:00,
2013-07-11 21:27:00,80.6,74.7,29.97,South,180,1.6,1.6,82,0.00,,,0.00,225.0,meteobridge,2013-07-12 01:27:00,
2013-07-11 21:32:00,80.4,74.8,29.97,South,180,0.7,0.7,83,0.00,,,0.00,225.0,meteobridge,2013-07-12 01:32:00,
2013-07-11 21:37:00,80.2,75.0,29.97,South,180,0.7,0.7,84,0.00,,,0.00,225.0,meteobridge,2013-07-12 01:37:00,
2013-07-11 21:42:00,80.2,75.4,29.97,SW,225,2.2,2.2,85,0.00,,,0.00,225.0,meteobridge,2013-07-12 01:42:00,
2013-07-11 21:47:00,80.1,75.2,29.97,SW,225,0.7,1.6,85,0.00,,,0.00,188.0,meteobridge,2013-07-12 01:47:00,
2013-07-11 21:52:00,80.1,75.6,29.98,South,180,0.7,0.7,86,0.00,,,0.00,188.0,meteobridge,2013-07-12 01:52:00,
2013-07-11 21:57:00,80.1,75.9,29.98,South,180,1.6,1.6,87,0.00,,,0.00,188.0,meteobridge,2013-07-12 01:57:00,
2013-07-11 22:02:00,79.9,75.9,29.98,South,180,0.0,0.7,88,0.00,,,0.00,188.0,meteobridge,2013-07-12 02:02:00,
2013-07-11 22:07:00,79.7,75.7,29.98,South,180,0.0,0.0,88,0.00,,,0.00,188.0,meteobridge,2013-07-12 02:07:00,
2013-07-11 22:13:00,79.7,76.1,29.98,South,180,0.7,0.7,89,0.00,,,0.00,188.0,meteobridge,2013-07-12 02:13:00,
2013-07-11 22:18:00,79.5,76.3,29.98,South,180,0.0,0.0,90,0.00,,,0.00,188.0,meteobridge,2013-07-12 02:18:00,
2013-07-11 22:23:00,79.5,76.6,29.97,South,180,0.0,0.0,91,0.00,,,0.00,188.0,meteobridge,2013-07-12 02:23:00,
2013-07-11 22:28:00,79.3,76.5,29.97,SW,225,1.6,1.6,91,0.00,,,0.00,188.0,meteobridge,2013-07-12 02:28:00,
2013-07-11 22:34:00,79.2,76.6,29.98,SW,225,0.0,0.0,92,0.00,,,0.00,188.0,meteobridge,2013-07-12 02:34:00,
2013-07-11 22:39:00,79.2,77.0,29.98,South,180,0.7,0.7,93,0.00,,,0.00,188.0,meteobridge,2013-07-12 02:39:00,
2013-07-11 22:44:00,79.0,77.2,29.98,SE,135,0.0,0.7,94,0.00,,,0.00,188.0,meteobridge,2013-07-12 02:44:00,
2013-07-11 22:49:00,78.8,77.2,29.98,SE,135,0.0,0.7,95,0.00,,,0.00,188.0,meteobridge,2013-07-12 02:49:00,
2013-07-11 22:54:00,78.8,77.2,29.98,SE,135,0.0,0.0,95,0.00,,,0.00,188.0,meteobridge,2013-07-12 02:54:00,
2013-07-11 22:59:00,78.8,77.5,29.98,SE,135,0.0,0.0,96,0.00,,,0.00,188.0,meteobridge,2013-07-12 02:59:00,
2013-07-11 23:04:00,78.8,77.5,29.98,SE,135,0.0,0.0,96,0.00,,,0.00,188.0,meteobridge,2013-07-12 03:04:00,
2013-07-11 23:09:00,78.6,77.7,29.98,SE,135,0.0,0.0,97,0.00,,,0.00,188.0,meteobridge,2013-07-12 03:09:00,
2013-07-11 23:14:00,78.6,77.7,29.98,SE,135,0.0,0.0,97,0.00,,,0.00,188.0,meteobridge,2013-07-12 03:14:00,
2013-07-11 23:20:00,78.6,77.7,29.98,SE,135,0.0,0.0,97,0.00,,,0.00,188.0,meteobridge,2013-07-12 03:20:00,
2013-07-11 23:25:00,78.6,78.1,29.98,SE,135,0.0,0.0,98,0.00,,,0.00,188.0,meteobridge,2013-07-12 03:25:00,
2013-07-11 23:30:00,78.4,77.9,29.98,SE,135,0.7,0.7,98,0.00,,,0.00,188.0,meteobridge,2013-07-12 03:30:00,
2013-07-11 23:35:00,78.4,78.1,29.98,SE,135,0.0,0.0,99,0.00,,,0.00,188.0,meteobridge,2013-07-12 03:35:00,
2013-07-11 23:40:00,78.3,77.9,29.98,SE,135,0.0,0.0,99,0.00,,,0.00,188.0,meteobridge,2013-07-12 03:40:00,
2013-07-11 23:45:00,78.1,77.7,29.98,SE,135,0.7,0.7,99,0.00,,,0.00,225.0,meteobridge,2013-07-12 03:45:00,
2013-07-11 23:51:00,77.9,77.5,29.98,NE,45,0.7,0.7,99,0.00,,,0.00,225.0,meteobridge,2013-07-12 03:51:00,
2013-07-11 23:56:00,78.1,77.7,29.98,SE,135,1.6,2.2,99,0.00,,,0.00,262.0,meteobridge,2013-07-12 03:56:00,